Time;durP1;ratioP1;P1;durP2;ratioP2;P2;SDS_P1;SDS_P2;PMS_P1;PMS_P2;Temp;Humidity;BMP_temperature;BMP_pressure;BME280_temperature;BME280_humidity;BME280_pressure;Samples;Min_cycle;Max_cycle;Signal;HPM_P1;HPM_P2
2022/11/05 00:09:31;;;;;;;;;;;;;;;15.76;85.95;100606.84;4985513;28;19972;-92
2022/11/05 00:17:27;;;;;;;;;;;;;;;15.59;86.69;100619.81;4975937;28;19921;-93
2022/11/05 00:19:54;;;;;;;;;;;;;;;15.69;86.35;100605.91;4975435;28;20374;-92
2022/11/05 00:25:15;;;;;;;;;;;;;;;15.54;86.80;100613.28;4986599;28;19977;-91
2022/11/05 00:27:44;;;;;;;;;;;;;;;15.52;87.04;100605.34;4975801;28;19923;-91
2022/11/05 00:30:11;;;;;;;;;;;;;;;15.53;86.79;100606.19;4988018;28;19919;-93
2022/11/05 00:32:36;;;;;;;;;;;;;;;15.44;87.33;100596.53;4991439;28;20008;-92
2022/11/05 00:35:02;;;;;;;;;;;;;;;15.43;87.30;100594.81;4989936;28;19965;-92
2022/11/05 00:37:29;;;;;;;;;;;;;;;15.34;87.92;100594.13;5003153;28;20031;-92
2022/11/05 00:39:54;;;;;;;;;;;;;;;15.43;87.41;100594.81;5000897;28;19918;-93
2022/11/05 00:45:04;;;;;;;;;;;;;;;15.40;87.53;100607.75;4993589;28;19990;-94
2022/11/05 00:50:14;;;;;;;;;;;;;;;15.30;87.77;100604.50;4988551;28;19925;-93
2022/11/05 00:52:56;;;;;;;;;;;;;;;15.36;87.59;100603.75;4996572;28;19923;-93
2022/11/05 00:55:27;;;;;;;;;;;;;;;15.32;88.45;100605.16;4990235;28;19993;-90
2022/11/05 00:57:52;;;;;;;;;;;;;;;15.40;87.69;100601.47;4992264;28;19925;-91
2022/11/05 01:00:18;;;;;;;;;;;;;;;15.38;88.06;100607.09;4990183;28;20021;-92
2022/11/05 01:02:44;;;;;;;;;;;;;;;15.39;88.08;100614.19;4983613;28;19946;-88
2022/11/05 01:05:09;;;;;;;;;;;;;;;15.40;87.71;100613.16;4967932;28;19918;-90
2022/11/05 01:07:35;;;;;;;;;;;;;;;15.37;87.44;100613.53;4975092;28;19993;-88
2022/11/05 01:10:00;;;;;;;;;;;;;;;15.41;87.31;100612.13;4984583;28;20359;-91
2022/11/05 01:12:26;;;;;;;;;;;;;;;15.48;87.13;100600.53;4974894;28;19926;-91
2022/11/05 01:14:52;;;;;;;;;;;;;;;15.49;87.10;100604.91;4960374;28;19918;-89
2022/11/05 01:17:17;;;;;;;;;;;;;;;15.56;86.61;100608.50;4957480;29;19970;-91
2022/11/05 01:19:42;;;;;;;;;;;;;;;15.57;86.54;100596.66;4956150;28;19926;-92
2022/11/05 01:22:08;;;;;;;;;;;;;;;15.52;86.85;100593.66;4954934;28;19948;-90
2022/11/05 01:24:33;;;;;;;;;;;;;;;15.60;86.58;100590.84;4964437;28;19933;-90
2022/11/05 01:26:59;;;;;;;;;;;;;;;15.58;86.45;100590.19;4953967;29;19922;-90
2022/11/05 01:29:24;;;;;;;;;;;;;;;15.49;87.06;100597.59;4950782;29;20311;-88
2022/11/05 01:31:49;;;;;;;;;;;;;;;15.47;87.07;100586.13;4936643;29;19961;-90
2022/11/05 01:34:15;;;;;;;;;;;;;;;15.52;87.23;100583.69;4944995;29;20013;-89
2022/11/05 01:36:41;;;;;;;;;;;;;;;15.49;87.38;100580.50;4962790;28;19914;-89
2022/11/05 01:39:06;;;;;;;;;;;;;;;15.48;87.32;100576.97;4955496;28;19962;-89
2022/11/05 01:41:32;;;;;;;;;;;;;;;15.46;87.90;100575.50;4946809;29;19930;-89
2022/11/05 01:44:00;;;;;;;;;;;;;;;15.43;87.75;100574.00;4959968;29;20048;-90
2022/11/05 01:46:34;;;;;;;;;;;;;;;15.47;88.20;100569.03;4981811;28;19919;-88
2022/11/05 01:49:03;;;;;;;;;;;;;;;15.37;89.08;100567.50;4950162;29;19930;-90
2022/11/05 01:51:29;;;;;;;;;;;;;;;15.30;89.21;100563.88;4967248;29;19922;-90
2022/11/05 01:53:57;;;;;;;;;;;;;;;15.46;89.28;100561.94;4965186;29;19923;-91
2022/11/05 01:56:27;;;;;;;;;;;;;;;15.44;89.32;100559.44;4975741;28;19926;-91
2022/11/05 01:58:53;;;;;;;;;;;;;;;15.33;89.79;100563.47;4955869;29;19926;-91
2022/11/05 02:01:18;;;;;;;;;;;;;;;15.27;90.24;100564.28;4962308;29;19974;-89
2022/11/05 02:03:44;;;;;;;;;;;;;;;15.23;90.80;100560.28;4953541;29;19986;-88
2022/11/05 02:06:09;;;;;;;;;;;;;;;15.21;90.86;100556.91;4948798;29;19941;-89
2022/11/05 02:08:43;;;;;;;;;;;;;;;15.16;91.96;100548.53;4941051;29;19922;-89
2022/11/05 02:11:10;;;;;;;;;;;;;;;15.18;91.60;100555.44;4959486;28;19926;-88
2022/11/05 02:13:35;;;;;;;;;;;;;;;15.17;92.11;100552.91;4988152;28;19929;-89
2022/11/05 02:16:07;;;;;;;;;;;;;;;15.18;91.47;100562.72;4993814;28;19910;-89
2022/11/05 02:18:39;;;;;;;;;;;;;;;15.08;91.63;100557.66;4986803;28;19926;-90
2022/11/05 02:21:23;;;;;;;;;;;;;;;15.14;91.72;100556.03;4963634;28;19974;-88
2022/11/05 02:23:53;;;;;;;;;;;;;;;15.12;91.63;100552.66;4960105;28;19914;-87
2022/11/05 02:26:37;;;;;;;;;;;;;;;15.14;91.55;100553.31;4960285;28;19930;-86
2022/11/05 02:29:05;;;;;;;;;;;;;;;15.20;91.79;100563.38;4959027;28;20387;-86
2022/11/05 02:31:36;;;;;;;;;;;;;;;15.22;91.62;100555.91;4963709;28;19918;-88
2022/11/05 02:34:01;;;;;;;;;;;;;;;15.15;91.73;100555.00;4967317;28;20017;-87
2022/11/05 02:36:27;;;;;;;;;;;;;;;15.27;91.04;100560.75;4961419;28;20093;-86
2022/11/05 02:39:11;;;;;;;;;;;;;;;15.24;90.69;100561.97;4954622;28;20406;-88
2022/11/05 02:41:55;;;;;;;;;;;;;;;15.20;90.91;100557.97;4953019;28;19918;-87
2022/11/05 02:44:26;;;;;;;;;;;;;;;15.12;91.38;100555.38;4961145;28;19929;-87
2022/11/05 02:47:00;;;;;;;;;;;;;;;15.17;91.36;100561.03;4955299;28;20060;-87
2022/11/05 02:49:45;;;;;;;;;;;;;;;15.10;91.81;100562.84;4954083;28;19930;-86
2022/11/05 02:52:14;;;;;;;;;;;;;;;15.04;92.16;100559.06;4965404;28;19931;-88
2022/11/05 02:54:42;;;;;;;;;;;;;;;15.03;92.10;100567.34;4976318;28;19926;-87
2022/11/05 02:57:07;;;;;;;;;;;;;;;15.04;91.97;100558.22;4973945;28;20013;-86
2022/11/05 02:59:32;;;;;;;;;;;;;;;14.96;92.16;100557.31;4976210;28;20410;-88
2022/11/05 03:01:58;;;;;;;;;;;;;;;15.00;91.75;100557.75;4960786;28;19918;-86
2022/11/05 03:04:23;;;;;;;;;;;;;;;15.02;91.64;100560.28;4977560;28;20402;-86
2022/11/05 03:06:55;;;;;;;;;;;;;;;14.99;91.58;100556.91;4980013;28;19921;-88
2022/11/05 03:09:39;;;;;;;;;;;;;;;15.00;90.91;100557.75;4970841;28;19918;-88
2022/11/05 03:12:05;;;;;;;;;;;;;;;15.02;90.58;100561.09;4978461;28;19926;-88
2022/11/05 03:14:43;;;;;;;;;;;;;;;14.95;90.41;100552.09;4969376;28;19922;-88
2022/11/05 03:17:24;;;;;;;;;;;;;;;14.99;90.48;100562.34;4954625;28;19918;-88
2022/11/05 03:19:53;;;;;;;;;;;;;;;14.95;90.64;100554.78;4962208;28;19918;-88
2022/11/05 03:22:26;;;;;;;;;;;;;;;14.96;90.33;100551.03;4985915;28;19918;-88
2022/11/05 03:24:52;;;;;;;;;;;;;;;14.94;90.06;100556.66;4969194;28;19961;-88
2022/11/05 03:27:18;;;;;;;;;;;;;;;14.93;89.74;100546.03;4986175;28;20000;-87
2022/11/05 03:29:51;;;;;;;;;;;;;;;14.93;89.38;100544.13;4942919;28;20084;-87
2022/11/05 03:32:17;;;;;;;;;;;;;;;14.91;89.26;100554.34;4986202;28;19922;-87
2022/11/05 03:34:44;;;;;;;;;;;;;;;14.82;89.81;100544.66;4966061;28;19921;-87
2022/11/05 03:37:09;;;;;;;;;;;;;;;14.84;90.05;100548.00;4966154;28;19921;-87
2022/11/05 03:39:41;;;;;;;;;;;;;;;14.87;89.33;100550.34;4966141;28;19922;-87
2022/11/05 03:42:07;;;;;;;;;;;;;;;14.81;89.38;100548.38;4955314;28;19941;-88
2022/11/05 03:44:33;;;;;;;;;;;;;;;14.82;89.27;100546.50;4950316;28;19977;-86
2022/11/05 03:47:03;;;;;;;;;;;;;;;14.78;89.19;100543.38;4958946;28;19930;-85
2022/11/05 03:49:30;;;;;;;;;;;;;;;14.82;88.92;100533.84;4970609;28;20343;-86
2022/11/05 03:52:24;;;;;;;;;;;;;;;14.72;89.16;100538.72;4986044;28;19918;-86
2022/11/05 03:54:50;;;;;;;;;;;;;;;14.67;90.09;100531.16;4951713;28;19922;-87
2022/11/05 03:57:19;;;;;;;;;;;;;;;14.74;89.77;100539.38;4971781;28;19976;-85
2022/11/05 03:59:45;;;;;;;;;;;;;;;14.65;89.41;100533.22;4976167;28;20008;-87
2022/11/05 04:02:11;;;;;;;;;;;;;;;14.61;89.77;100539.19;4989026;28;19960;-87
2022/11/05 04:04:36;;;;;;;;;;;;;;;14.67;89.49;100535.75;4968017;28;19930;-86
2022/11/05 04:15:14;;;;;;;;;;;;;;;14.74;89.34;100531.25;4947785;29;20446;-87
2022/11/05 04:17:39;;;;;;;;;;;;;;;14.73;89.93;100535.81;4933913;29;19923;-85
2022/11/05 04:25:32;;;;;;;;;;;;;;;14.67;89.94;100542.00;4952218;29;19932;-87
2022/11/05 04:27:58;;;;;;;;;;;;;;;14.71;90.36;100534.34;4952957;29;20143;-88
2022/11/05 04:30:24;;;;;;;;;;;;;;;14.71;89.52;100531.63;4951647;29;19969;-87
2022/11/05 04:33:03;;;;;;;;;;;;;;;14.67;89.74;100535.75;4953757;28;19927;-85
2022/11/05 04:35:35;;;;;;;;;;;;;;;14.64;89.71;100541.53;4966866;29;20283;-88
2022/11/05 04:38:00;;;;;;;;;;;;;;;14.55;89.83;100544.34;4963505;28;20000;-86
2022/11/05 04:40:26;;;;;;;;;;;;;;;14.62;89.42;100549.00;4945781;29;19926;-88
2022/11/05 04:42:52;;;;;;;;;;;;;;;14.61;89.33;100541.91;4948194;28;20419;-85
2022/11/05 04:45:17;;;;;;;;;;;;;;;14.60;89.41;100537.53;4962142;28;19919;-87
2022/11/05 04:47:43;;;;;;;;;;;;;;;14.62;88.67;100546.31;4948718;29;19918;-86
2022/11/05 04:50:09;;;;;;;;;;;;;;;14.58;88.58;100532.31;4948481;29;19934;-87
2022/11/05 04:52:35;;;;;;;;;;;;;;;14.57;89.29;100533.34;4956493;29;19985;-83
2022/11/05 04:55:00;;;;;;;;;;;;;;;14.59;89.33;100538.59;4951614;29;19919;-86
2022/11/05 04:57:25;;;;;;;;;;;;;;;14.59;89.73;100534.00;4946579;29;19941;-87
2022/11/05 04:59:51;;;;;;;;;;;;;;;14.61;89.28;100541.91;4929921;29;20398;-87
2022/11/05 05:02:16;;;;;;;;;;;;;;;14.60;89.64;100540.25;4951156;29;19973;-88
2022/11/05 05:04:41;;;;;;;;;;;;;;;14.64;88.79;100536.13;4942655;29;19926;-85
2022/11/05 05:07:06;;;;;;;;;;;;;;;14.69;88.58;100534.53;4950194;29;19931;-87
2022/11/05 05:09:32;;;;;;;;;;;;;;;14.68;88.87;100537.41;4940406;29;20402;-86
2022/11/05 05:11:57;;;;;;;;;;;;;;;14.71;88.79;100539.75;4965569;28;19930;-87
2022/11/05 05:14:22;;;;;;;;;;;;;;;14.76;88.15;100551.66;4962534;28;20014;-86
2022/11/05 05:16:48;;;;;;;;;;;;;;;14.72;87.46;100538.72;4974521;28;19923;-87
2022/11/05 05:19:13;;;;;;;;;;;;;;;14.78;87.45;100551.50;4970947;28;20383;-88
2022/11/05 05:21:39;;;;;;;;;;;;;;;14.89;87.05;100556.41;4970848;28;19922;-87
2022/11/05 05:24:07;;;;;;;;;;;;;;;14.89;86.87;100561.81;4972172;28;19922;-86
2022/11/05 05:26:32;;;;;;;;;;;;;;;14.99;85.69;100556.91;4988186;28;20379;-87
2022/11/05 05:28:58;;;;;;;;;;;;;;;15.06;85.72;100561.56;4969762;28;19922;-85
2022/11/05 05:31:23;;;;;;;;;;;;;;;15.10;85.09;100560.13;4970678;28;19922;-87
2022/11/05 05:33:51;;;;;;;;;;;;;;;15.09;84.84;100566.59;4968658;28;19918;-86
2022/11/05 05:36:16;;;;;;;;;;;;;;;15.12;83.30;100572.44;4980775;28;19952;-87
2022/11/05 05:38:42;;;;;;;;;;;;;;;15.17;82.37;100575.44;5000017;28;20367;-86
2022/11/05 05:41:07;;;;;;;;;;;;;;;15.18;81.42;100568.97;5010154;28;20308;-85
2022/11/05 05:43:33;;;;;;;;;;;;;;;15.29;80.28;100578.47;4968523;28;19926;-87
2022/11/05 05:46:02;;;;;;;;;;;;;;;15.32;79.47;100583.50;4973297;28;19918;-85
2022/11/05 05:48:27;;;;;;;;;;;;;;;15.30;78.73;100574.72;4999146;28;19974;-87
2022/11/05 05:50:52;;;;;;;;;;;;;;;15.36;78.31;100587.50;4973576;28;19964;-86
2022/11/05 05:53:17;;;;;;;;;;;;;;;15.39;77.42;100589.81;4998685;28;19922;-87
2022/11/05 05:55:43;;;;;;;;;;;;;;;15.50;76.57;100585.75;4988504;28;20366;-86
2022/11/05 05:58:08;;;;;;;;;;;;;;;15.61;76.98;100587.91;4972356;28;19922;-86
2022/11/05 06:00:34;;;;;;;;;;;;;;;15.68;75.73;100585.25;4957035;28;19934;-87
2022/11/05 06:02:59;;;;;;;;;;;;;;;15.81;75.29;100593.53;4986209;28;19925;-86
2022/11/05 06:05:24;;;;;;;;;;;;;;;15.95;74.77;100590.91;4965909;28;19945;-85
2022/11/05 06:07:56;;;;;;;;;;;;;;;16.07;74.83;100597.47;4985342;28;20001;-86
2022/11/05 06:10:22;;;;;;;;;;;;;;;16.20;74.06;100602.97;4985981;28;19985;-87
2022/11/05 06:12:47;;;;;;;;;;;;;;;16.37;73.62;100602.66;4987531;28;19930;-87
2022/11/05 06:15:12;;;;;;;;;;;;;;;16.53;73.48;100607.75;4965558;28;20303;-86
2022/11/05 06:17:38;;;;;;;;;;;;;;;16.59;71.68;100604.22;5001957;28;19926;-87
2022/11/05 06:20:03;;;;;;;;;;;;;;;16.69;71.25;100609.25;4978231;28;20116;-87
2022/11/05 06:22:28;;;;;;;;;;;;;;;16.73;70.73;100610.53;4985934;28;19953;-86
2022/11/05 06:24:54;;;;;;;;;;;;;;;16.86;70.35;100607.09;4968362;28;20363;-86
2022/11/05 06:27:19;;;;;;;;;;;;;;;17.01;70.54;100609.63;4987030;28;19926;-87
2022/11/05 06:29:44;;;;;;;;;;;;;;;17.11;70.67;100610.06;4969332;28;20036;-87
2022/11/05 06:32:10;;;;;;;;;;;;;;;17.29;70.48;100607.59;4973441;28;20033;-87
2022/11/05 06:34:35;;;;;;;;;;;;;;;17.42;69.41;100609.53;4969354;28;19965;-87
2022/11/05 06:37:01;;;;;;;;;;;;;;;17.60;68.94;100614.31;4972862;28;20390;-87
2022/11/05 06:39:26;;;;;;;;;;;;;;;17.80;68.73;100614.34;4998106;28;19918;-86
2022/11/05 06:41:51;;;;;;;;;;;;;;;18.14;66.12;100616.03;4972122;28;20076;-87
2022/11/05 06:44:16;;;;;;;;;;;;;;;18.61;64.04;100609.59;4962863;28;19918;-88
2022/11/05 06:46:42;;;;;;;;;;;;;;;19.14;62.31;100615.66;5003786;28;19926;-88
2022/11/05 06:49:07;;;;;;;;;;;;;;;19.78;60.10;100613.81;4964026;28;19915;-87
2022/11/05 06:51:32;;;;;;;;;;;;;;;20.53;57.82;100614.72;4972639;28;19922;-88
2022/11/05 06:53:58;;;;;;;;;;;;;;;20.83;57.06;100610.16;4967243;28;20029;-89
2022/11/05 06:56:23;;;;;;;;;;;;;;;21.60;53.95;100611.44;4974407;28;20313;-90
2022/11/05 06:58:48;;;;;;;;;;;;;;;22.46;52.22;100596.22;4998395;28;19914;-86
2022/11/05 07:01:14;;;;;;;;;;;;;;;23.10;49.77;100600.81;4973570;28;19925;-89
2022/11/05 07:03:39;;;;;;;;;;;;;;;23.82;48.54;100599.34;4964661;28;20009;-89
2022/11/05 07:06:05;;;;;;;;;;;;;;;24.40;46.83;100596.06;4983930;28;19922;-90
2022/11/05 07:08:33;;;;;;;;;;;;;;;25.08;45.34;100595.00;4970590;28;20001;-89
2022/11/05 07:10:58;;;;;;;;;;;;;;;25.76;43.17;100596.19;4990245;28;20344;-88
2022/11/05 07:13:24;;;;;;;;;;;;;;;26.03;41.89;100596.13;4977624;28;19922;-90
2022/11/05 07:15:49;;;;;;;;;;;;;;;26.37;40.96;100594.97;4979784;28;20071;-89
2022/11/05 07:18:15;;;;;;;;;;;;;;;26.91;39.69;100595.47;4970044;28;20272;-88
2022/11/05 07:20:40;;;;;;;;;;;;;;;27.26;37.88;100593.09;4978767;28;19914;-89
2022/11/05 07:23:06;;;;;;;;;;;;;;;27.38;36.68;100592.84;4996414;28;19961;-88
2022/11/05 07:25:31;;;;;;;;;;;;;;;27.52;35.79;100589.25;4969142;28;19914;-90
2022/11/05 07:27:57;;;;;;;;;;;;;;;27.56;34.96;100589.53;4974004;28;19977;-88
2022/11/05 07:30:22;;;;;;;;;;;;;;;27.93;34.68;100594.78;4981245;28;19949;-86
2022/11/05 07:32:47;;;;;;;;;;;;;;;28.69;34.07;100578.28;4983940;28;19941;-88
2022/11/05 07:35:13;;;;;;;;;;;;;;;29.45;32.42;100582.50;4966928;28;20371;-91
2022/11/05 07:37:42;;;;;;;;;;;;;;;29.15;31.70;100569.72;4985165;28;19925;-88
2022/11/05 07:40:08;;;;;;;;;;;;;;;29.77;30.99;100576.44;4966550;28;20310;-89
2022/11/05 07:42:34;;;;;;;;;;;;;;;30.05;29.91;100574.78;4984684;28;19930;-88
2022/11/05 07:44:59;;;;;;;;;;;;;;;30.69;30.06;100580.16;4968078;28;20001;-85
2022/11/05 07:47:24;;;;;;;;;;;;;;;31.18;29.33;100569.78;4995649;28;20074;-89
2022/11/05 07:49:50;;;;;;;;;;;;;;;31.10;28.66;100579.63;4961898;28;20298;-90
2022/11/05 07:52:15;;;;;;;;;;;;;;;31.23;28.31;100576.06;4967416;28;19922;-89
2022/11/05 07:54:40;;;;;;;;;;;;;;;31.71;27.69;100586.16;4961232;28;19943;-89
2022/11/05 07:57:06;;;;;;;;;;;;;;;31.42;28.20;100578.03;4964651;28;20296;-90
2022/11/05 07:59:31;;;;;;;;;;;;;;;30.99;28.67;100584.50;4994275;28;20465;-90
2022/11/05 08:01:56;;;;;;;;;;;;;;;32.37;27.38;100584.13;4970709;28;19922;-90
2022/11/05 08:04:21;;;;;;;;;;;;;;;32.77;26.38;100578.84;4964228;28;20012;-90
2022/11/05 08:06:47;;;;;;;;;;;;;;;31.24;27.73;100580.50;4975394;28;19918;-88
2022/11/05 08:09:12;;;;;;;;;;;;;;;31.03;28.27;100584.72;4977445;28;19926;-89
2022/11/05 08:11:38;;;;;;;;;;;;;;;30.92;28.27;100576.53;4972206;28;19922;-90
2022/11/05 08:14:04;;;;;;;;;;;;;;;32.15;26.91;100577.31;4973580;28;19926;-89
2022/11/05 08:16:29;;;;;;;;;;;;;;;32.73;25.69;100577.81;4972829;28;19977;-90
2022/11/05 08:18:54;;;;;;;;;;;;;;;33.29;25.15;100575.72;4972235;28;19981;-88
2022/11/05 08:21:20;;;;;;;;;;;;;;;33.97;23.98;100562.56;4973356;28;20068;-90
2022/11/05 08:23:45;;;;;;;;;;;;;;;33.76;24.22;100568.72;4998303;28;19998;-90
2022/11/05 08:26:10;;;;;;;;;;;;;;;34.25;23.51;100561.25;4966579;28;19929;-88
2022/11/05 08:28:36;;;;;;;;;;;;;;;34.57;22.81;100567.56;4964208;28;19922;-89
2022/11/05 08:31:01;;;;;;;;;;;;;;;34.40;21.98;100564.75;4986818;28;19928;-88
2022/11/05 08:33:28;;;;;;;;;;;;;;;32.32;25.18;100579.47;4970270;28;19918;-89
2022/11/05 08:35:53;;;;;;;;;;;;;;;33.19;24.59;100571.22;4979029;28;19918;-90
2022/11/05 08:38:18;;;;;;;;;;;;;;;32.97;24.33;100572.00;4990166;28;19922;-87
2022/11/05 08:40:44;;;;;;;;;;;;;;;32.97;24.58;100572.00;4992998;28;19918;-89
2022/11/05 08:43:10;;;;;;;;;;;;;;;32.73;25.07;100575.03;5008850;28;19933;-90
2022/11/05 08:45:36;;;;;;;;;;;;;;;31.19;27.23;100577.81;4979835;28;19925;-89
2022/11/05 08:48:02;;;;;;;;;;;;;;;31.52;27.04;100575.91;5008331;28;19928;-91
2022/11/05 08:50:27;;;;;;;;;;;;;;;32.43;25.53;100571.75;4990646;28;19922;-89
2022/11/05 08:52:52;;;;;;;;;;;;;;;33.03;24.65;100572.69;4988277;28;19914;-89
2022/11/05 08:55:18;;;;;;;;;;;;;;;33.04;24.66;100565.97;4971236;28;19915;-90
2022/11/05 08:57:45;;;;;;;;;;;;;;;33.96;24.21;100566.50;5004979;28;19918;-89
2022/11/05 09:00:10;;;;;;;;;;;;;;;34.72;22.81;100566.31;4966457;28;19925;-89
2022/11/05 09:02:36;;;;;;;;;;;;;;;34.81;22.17;100580.28;4971722;28;19922;-89
2022/11/05 09:05:01;;;;;;;;;;;;;;;32.09;25.48;100574.94;4971398;28;20355;-90
2022/11/05 09:07:26;;;;;;;;;;;;;;;33.18;25.07;100575.16;5005324;28;20331;-90
2022/11/05 09:09:52;;;;;;;;;;;;;;;32.82;25.92;100573.16;4969477;28;19914;-91
2022/11/05 09:12:17;;;;;;;;;;;;;;;33.92;24.64;100573.88;4985042;28;19930;-91
2022/11/05 09:14:42;;;;;;;;;;;;;;;34.61;23.90;100565.00;4970433;28;19922;-90
2022/11/05 09:17:17;;;;;;;;;;;;;;;34.75;23.16;100576.03;4989502;28;19946;-90
2022/11/05 09:19:43;;;;;;;;;;;;;;;34.88;22.91;100575.84;4971229;28;19918;-90
2022/11/05 09:22:11;;;;;;;;;;;;;;;33.91;24.43;100564.69;4974618;28;19920;-89
2022/11/05 09:24:36;;;;;;;;;;;;;;;33.42;25.21;100563.72;4969185;28;19922;-89
2022/11/05 09:27:02;;;;;;;;;;;;;;;34.25;23.97;100564.06;4972980;28;20130;-90
2022/11/05 09:29:27;;;;;;;;;;;;;;;34.74;23.36;100563.19;4951838;28;20483;-90
2022/11/05 09:31:52;;;;;;;;;;;;;;;35.65;22.44;100564.19;4966873;28;19922;-89
2022/11/05 09:34:18;;;;;;;;;;;;;;;35.41;22.80;100568.34;4990570;28;19926;-89
2022/11/05 09:36:43;;;;;;;;;;;;;;;35.83;22.39;100562.19;4991250;28;19937;-88
2022/11/05 09:39:08;;;;;;;;;;;;;;;36.64;21.25;100557.56;4981080;28;20306;-91
2022/11/05 09:41:36;;;;;;;;;;;;;;;37.52;20.26;100558.50;4974278;28;19918;-90
2022/11/05 09:44:05;;;;;;;;;;;;;;;36.96;20.18;100556.00;5001167;28;19926;-90
2022/11/05 09:46:40;;;;;;;;;;;;;;;35.84;21.59;100559.03;5006994;28;19926;-90
2022/11/05 09:49:06;;;;;;;;;;;;;;;35.54;21.90;100557.28;4991851;28;19925;-91
2022/11/05 09:51:31;;;;;;;;;;;;;;;34.29;24.02;100547.47;4968573;28;19964;-90
2022/11/05 09:53:58;;;;;;;;;;;;;;;33.21;25.23;100546.69;4970736;28;19918;-89
2022/11/05 09:56:31;;;;;;;;;;;;;;;33.52;23.94;100548.69;5001455;28;19966;-87
2022/11/05 09:59:03;;;;;;;;;;;;;;;33.72;23.65;100542.63;5016312;28;19960;-91
2022/11/05 10:01:35;;;;;;;;;;;;;;;31.70;25.88;100554.78;4965390;28;19918;-91
2022/11/05 10:04:01;;;;;;;;;;;;;;;30.86;26.40;100552.78;5003770;28;19965;-88
2022/11/05 10:06:27;;;;;;;;;;;;;;;31.78;26.17;100544.91;4992327;28;19921;-88
2022/11/05 10:09:00;;;;;;;;;;;;;;;31.74;26.50;100558.56;5003991;28;19923;-89
2022/11/05 10:11:30;;;;;;;;;;;;;;;31.01;27.90;100553.66;4991631;28;19926;-88
2022/11/05 10:14:08;;;;;;;;;;;;;;;31.57;27.78;100555.56;4993918;28;20511;-90
2022/11/05 10:16:38;;;;;;;;;;;;;;;32.14;27.24;100553.41;4977103;28;19918;-88
2022/11/05 10:19:08;;;;;;;;;;;;;;;33.21;25.23;100541.09;4989053;28;19950;-87
2022/11/05 10:21:34;;;;;;;;;;;;;;;32.92;24.44;100542.31;4997621;28;19926;-89
2022/11/05 10:23:59;;;;;;;;;;;;;;;32.90;24.57;100550.16;4987523;28;20034;-89
2022/11/05 10:26:26;;;;;;;;;;;;;;;33.73;23.16;100544.25;4974947;28;19922;-88
2022/11/05 10:28:51;;;;;;;;;;;;;;;33.24;24.14;100540.47;4968959;28;19951;-89
2022/11/05 10:31:19;;;;;;;;;;;;;;;33.18;25.02;100552.88;4972101;28;19926;-88
2022/11/05 10:33:48;;;;;;;;;;;;;;;32.95;25.21;100552.00;4982710;28;19918;-89
2022/11/05 10:36:23;;;;;;;;;;;;;;;33.22;24.38;100538.00;4975674;28;19941;-89
2022/11/05 10:38:48;;;;;;;;;;;;;;;33.73;25.21;100549.81;4969154;28;19919;-88
2022/11/05 10:41:23;;;;;;;;;;;;;;;32.51;27.27;100540.44;4972247;28;19922;-89
2022/11/05 10:43:49;;;;;;;;;;;;;;;33.60;25.84;100534.03;4986875;28;19924;-87
2022/11/05 10:46:26;;;;;;;;;;;;;;;32.34;27.58;100541.06;5004330;28;19917;-87
2022/11/05 10:48:54;;;;;;;;;;;;;;;33.28;26.08;100530.34;4997179;28;20017;-88
2022/11/05 10:51:20;;;;;;;;;;;;;;;33.11;25.02;100535.78;5003713;28;19922;-89
2022/11/05 10:53:49;;;;;;;;;;;;;;;32.91;25.67;100535.09;4969590;28;19915;-88
2022/11/05 10:56:41;;;;;;;;;;;;;;;32.90;25.02;100525.09;4981621;28;20401;-89
2022/11/05 10:59:18;;;;;;;;;;;;;;;33.17;24.74;100521.41;4960238;28;19918;-89
2022/11/05 11:01:43;;;;;;;;;;;;;;;32.89;24.92;100533.75;4961706;28;19922;-88
2022/11/05 11:04:38;;;;;;;;;;;;;;;32.24;27.33;100534.88;4982895;28;20422;-88
2022/11/05 11:07:03;;;;;;;;;;;;;;;32.73;26.31;100528.56;4954917;28;20352;-89
2022/11/05 11:09:32;;;;;;;;;;;;;;;32.82;25.84;100525.84;4961395;28;19976;-88
2022/11/05 11:12:05;;;;;;;;;;;;;;;32.67;26.11;100521.47;4955528;28;19930;-89
2022/11/05 11:14:30;;;;;;;;;;;;;;;31.51;27.25;100531.75;4974677;28;19978;-90
2022/11/05 11:17:14;;;;;;;;;;;;;;;31.93;27.27;100524.31;4971303;28;19922;-88
2022/11/05 11:19:39;;;;;;;;;;;;;;;31.78;28.12;100522.66;4964729;28;19929;-91
2022/11/05 11:22:04;;;;;;;;;;;;;;;31.30;28.29;100529.31;4965376;28;19985;-91
2022/11/05 11:24:50;;;;;;;;;;;;;;;31.03;28.26;100510.59;4984901;28;19985;-91
2022/11/05 11:27:21;;;;;;;;;;;;;;;30.20;28.23;100514.75;4964950;28;19932;-92
2022/11/05 11:29:59;;;;;;;;;;;;;;;29.71;29.25;100510.31;4985734;28;19917;-91
2022/11/05 11:32:26;;;;;;;;;;;;;;;29.46;29.87;100506.66;4976145;28;19922;-91
2022/11/05 11:34:51;;;;;;;;;;;;;;;29.60;29.74;100515.91;4985415;28;19914;-90
2022/11/05 11:37:24;;;;;;;;;;;;;;;29.91;29.48;100515.63;4970987;28;20010;-91
2022/11/05 11:39:51;;;;;;;;;;;;;;;30.49;28.86;100504.41;4969635;28;19926;-91
2022/11/05 11:42:23;;;;;;;;;;;;;;;30.01;29.58;100509.16;4970515;28;19985;-90
2022/11/05 11:44:48;;;;;;;;;;;;;;;30.22;29.32;100505.00;4969454;28;20386;-90
2022/11/05 11:47:15;;;;;;;;;;;;;;;30.52;28.29;100513.25;5002902;28;19953;-90
2022/11/05 11:49:40;;;;;;;;;;;;;;;29.18;30.38;100506.31;4987778;28;20004;-89
2022/11/05 11:52:14;;;;;;;;;;;;;;;28.42;31.79;100513.94;4970500;28;20394;-92
2022/11/05 11:54:39;;;;;;;;;;;;;;;28.17;33.42;100511.28;4958879;28;20020;-95
2022/11/05 11:57:22;;;;;;;;;;;;;;;27.21;35.12;100516.66;5008665;28;20008;-91
2022/11/05 11:59:55;;;;;;;;;;;;;;;26.97;36.05;100510.78;4995247;28;19926;-92
2022/11/05 12:02:47;;;;;;;;;;;;;;;26.47;37.62;100504.88;4971783;28;19922;-95
2022/11/05 12:05:25;;;;;;;;;;;;;;;26.51;38.02;100507.91;4980810;28;20012;-93
2022/11/05 12:08:13;;;;;;;;;;;;;;;26.19;38.90;100506.13;5010805;28;19964;-95
2022/11/05 12:10:39;;;;;;;;;;;;;;;26.03;38.77;100504.41;4951762;28;20338;-93
2022/11/05 12:13:20;;;;;;;;;;;;;;;26.10;39.01;100502.22;4976856;28;19933;-94
2022/11/05 12:15:55;;;;;;;;;;;;;;;25.86;39.87;100502.66;4993381;28;19928;-95
2022/11/05 12:18:36;;;;;;;;;;;;;;;25.87;39.72;100504.34;4996980;28;19930;-92
2022/11/05 12:21:13;;;;;;;;;;;;;;;25.49;41.47;100506.22;4985482;28;19930;-88
2022/11/05 12:23:47;;;;;;;;;;;;;;;24.82;43.29;100507.56;4981079;28;20239;-90
2022/11/05 12:26:31;;;;;;;;;;;;;;;23.05;47.59;100511.06;4981504;28;19922;-91
2022/11/05 12:29:16;;;;;;;;;;;;;;;23.14;48.01;100516.97;4989020;28;19957;-91
2022/11/05 12:32:05;;;;;;;;;;;;;;;23.12;48.54;100519.13;4994993;28;19917;-92
2022/11/05 12:34:49;;;;;;;;;;;;;;;23.02;49.17;100517.06;5078008;23;19944;-93
2022/11/05 12:37:22;;;;;;;;;;;;;;;23.28;48.39;100518.31;5058606;23;19921;-92
2022/11/05 12:40:08;;;;;;;;;;;;;;;23.01;49.30;100525.50;5049605;28;19909;-91
2022/11/05 12:42:52;;;;;;;;;;;;;;;23.19;49.07;100525.28;5023596;28;19922;-93
2022/11/05 12:45:47;;;;;;;;;;;;;;;22.53;50.90;100528.44;5039871;28;19913;-92
2022/11/05 12:48:23;;;;;;;;;;;;;;;22.83;49.87;100526.50;5022679;28;19914;-92
2022/11/05 12:50:52;;;;;;;;;;;;;;;23.03;49.13;100531.59;5035355;28;19929;-94
2022/11/05 12:53:22;;;;;;;;;;;;;;;22.83;49.63;100526.50;5029219;28;19922;-95
2022/11/05 12:55:48;;;;;;;;;;;;;;;22.84;49.46;100522.72;5026085;28;19917;-94
2022/11/05 12:58:19;;;;;;;;;;;;;;;22.82;49.71;100531.16;5030621;28;19921;-93
2022/11/05 13:00:45;;;;;;;;;;;;;;;22.56;50.22;100524.38;5016511;28;19961;-92
2022/11/05 13:03:30;;;;;;;;;;;;;;;22.36;50.72;100521.22;5009554;28;19928;-96
2022/11/05 13:05:56;;;;;;;;;;;;;;;22.17;51.15;100517.78;5027071;28;19920;-91
2022/11/05 13:08:27;;;;;;;;;;;;;;;22.00;51.63;100528.63;5023006;28;20001;-94
2022/11/05 13:11:18;;;;;;;;;;;;;;;21.96;51.92;100531.03;5034405;28;19926;-91
2022/11/05 13:13:48;;;;;;;;;;;;;;;21.55;52.89;100530.06;5006339;28;19918;-91
2022/11/05 13:16:23;;;;;;;;;;;;;;;21.35;53.78;100537.72;5017436;28;19925;-90
2022/11/05 13:18:53;;;;;;;;;;;;;;;21.16;54.54;100534.25;5033860;28;19921;-93